Time;durP1;ratioP1;P1;durP2;ratioP2;P2;SDS_P1;SDS_P2;PMS_P1;PMS_P2;Temp;Humidity;BMP_temperature;BMP_pressure;BME280_temperature;BME280_humidity;BME280_pressure;Samples;Min_cycle;Max_cycle;Signal;HPM_P1;HPM_P2
2023/08/09 00:00:07;;;;;;;2.93;2.70;;;13.90;99.90;;;;;;4962810;28;20502;-91
2023/08/09 00:02:36;;;;;;;2.67;2.47;;;;;;;;;;4962816;29;20442;-91
2023/08/09 00:05:02;;;;;;;6.40;3.03;;;13.80;1.00;;;;;;4962782;29;20449;-91
2023/08/09 00:07:30;;;;;;;2.50;2.33;;;;;;;;;;4970698;28;20525;-90
2023/08/09 00:09:57;;;;;;;3.43;2.83;;;;;;;;;;4978729;28;20438;-89
2023/08/09 00:12:24;;;;;;;2.60;2.40;;;;;;;;;;4979857;28;20457;-90
2023/08/09 00:14:51;;;;;;;4.40;2.93;;;13.60;99.90;;;;;;4979960;28;20480;-89
2023/08/09 00:17:18;;;;;;;2.00;1.90;;;;;;;;;;4977945;28;20461;-91
2023/08/09 00:19:47;;;;;;;2.70;2.50;;;;;;;;;;4968095;28;20481;-91
2023/08/09 00:22:14;;;;;;;2.60;2.40;;;;;;;;;;4973350;28;20462;-91
2023/08/09 00:24:42;;;;;;;2.73;2.50;;;13.60;99.90;;;;;;4967601;29;20465;-91
2023/08/09 00:27:11;;;;;;;3.50;2.53;;;;;;;;;;4965091;29;20462;-91
2023/08/09 00:29:38;;;;;;;4.33;3.13;;;;;;;;;;4965268;29;20454;-91
2023/08/09 00:32:05;;;;;;;4.10;3.70;;;;;;;;;;4962762;28;20556;-91
2023/08/09 00:34:33;;;;;;;4.67;3.60;;;;;;;;;;4962704;29;20569;-90
2023/08/09 00:37:02;;;;;;;7.57;4.60;;;;;;;;;;4962771;29;20457;-92
2023/08/09 00:39:30;;;;;;;4.17;3.50;;;;;;;;;;4961860;29;20466;-90
2023/08/09 00:41:57;;;;;;;5.57;3.60;;;;;;;;;;4962099;28;20477;-92
2023/08/09 00:44:24;;;;;;;3.27;2.97;;;14.10;1.00;;;;;;4962994;29;20791;-91
2023/08/09 00:46:52;;;;;;;5.10;2.70;;;;;;;;;;4963011;29;20446;-92
2023/08/09 00:49:20;;;;;;;9.10;3.50;;;;;;;;;;4972814;28;20481;-92
2023/08/09 00:51:47;;;;;;;3.07;2.77;;;;;;;;;;4966490;28;20505;-91
2023/08/09 00:54:16;;;;;;;4.30;2.17;;;;;;;;;;4966255;29;20485;-91
2023/08/09 00:56:44;;;;;;;2.27;2.10;;;13.90;99.90;;;;;;4965813;29;20962;-91
2023/08/09 00:59:11;;;;;;;2.57;1.70;;;;;;;;;;4965838;29;20828;-91
2023/08/09 01:01:40;;;;;;;4.80;2.30;;;13.90;35.70;;;;;;4968282;28;20497;-92
2023/08/09 01:04:07;;;;;;;1.87;1.77;;;;;;;;;;4975657;28;20920;-91
2023/08/09 01:06:42;;;;;;;2.83;1.93;;;13.90;98.70;;;;;;4981149;28;20430;-92
2023/08/09 01:09:17;;;;;;;4.03;2.10;;;13.90;1.00;;;;;;4981360;28;20467;-92
2023/08/09 01:11:50;;;;;;;4.77;2.57;;;13.90;99.90;;;;;;4968621;28;20564;-92
2023/08/09 01:14:18;;;;;;;3.10;2.13;;;;;;;;;;4965956;29;20517;-92
2023/08/09 01:16:46;;;;;;;3.23;2.03;;;13.90;99.90;;;;;;4965391;29;20449;-92
2023/08/09 01:19:28;;;;;;;2.93;2.63;;;13.90;99.90;;;;;;4967518;29;20473;-92
2023/08/09 01:21:58;;;;;;;5.33;2.53;;;14.00;99.90;;;;;;4965319;28;20470;-92
2023/08/09 01:24:27;;;;;;;2.40;1.93;;;;;;;;;;4965661;29;20445;-91
2023/08/09 01:26:56;;;;;;;2.53;2.20;;;14.00;1.00;;;;;;4974824;28;20443;-91
2023/08/09 01:29:23;;;;;;;3.30;2.17;;;;;;;;;;4981602;28;20446;-91
2023/08/09 01:31:50;;;;;;;6.57;2.57;;;;;;;;;;4980999;28;20470;-91
2023/08/09 01:34:18;;;;;;;3.70;2.00;;;;;;;;;;4974878;29;20489;-91
2023/08/09 01:36:52;;;;;;;2.40;2.20;;;14.00;1.00;;;;;;4977269;29;20430;-91
2023/08/09 01:39:24;;;;;;;3.00;2.07;;;14.00;99.90;;;;;;4979163;28;20435;-90
2023/08/09 01:41:53;;;;;;;2.50;2.23;;;;;;;;;;4973314;28;20477;-90
2023/08/09 01:44:23;;;;;;;2.20;1.90;;;14.00;99.90;;;;;;4971338;29;20470;-91
2023/08/09 01:46:50;;;;;;;2.50;2.13;;;;;;;;;;4969965;29;20474;-91
2023/08/09 01:49:21;;;;;;;2.27;2.17;;;;;;;;;;4967991;29;20945;-91
2023/08/09 01:51:48;;;;;;;2.30;2.10;;;;;;;;;;4966374;28;20614;-91
2023/08/09 01:54:17;;;;;;;1.87;1.70;;;;;;;;;;4966820;29;20490;-91
2023/08/09 01:56:45;;;;;;;2.37;2.20;;;;;;;;;;4964804;29;20486;-90
2023/08/09 01:59:14;;;;;;;2.80;2.00;;;;;;;;;;4978638;28;20431;-90
2023/08/09 02:01:42;;;;;;;3.70;1.90;;;;;;;;;;4980827;28;20509;-92
2023/08/09 02:04:10;;;;;;;2.50;2.30;;;14.20;99.90;;;;;;4973425;28;20443;-91
2023/08/09 02:06:38;;;;;;;2.30;2.10;;;;;;;;;;4976421;28;20430;-91
2023/08/09 02:09:06;;;;;;;2.77;2.00;;;13.70;1.00;;;;;;4982125;28;20426;-90
2023/08/09 02:11:34;;;;;;;7.53;1.93;;;;;;;;;;4976118;28;20493;-90
2023/08/09 02:14:01;;;;;;;2.43;1.70;;;;;;;;;;4966355;29;20484;-90
2023/08/09 02:16:30;;;;;;;2.10;1.90;;;;;;;;;;4965434;29;20433;-90
2023/08/09 02:18:57;;;;;;;3.83;2.20;;;;;;;;;;4965792;29;20534;-90
2023/08/09 02:21:25;;;;;;;2.47;1.60;;;;;;;;;;4965036;28;20452;-91
2023/08/09 02:23:52;;;;;;;3.67;2.30;;;;;;;;;;4963374;29;20439;-90
2023/08/09 02:26:19;;;;;;;5.93;2.80;;;;;;;;;;4963231;29;20891;-90
2023/08/09 02:28:48;;;;;;;2.87;2.60;;;;;;;;;;4965521;29;20438;-90
2023/08/09 02:31:18;;;;;;;2.60;2.40;;;;;;;;;;4963149;28;20530;-91
2023/08/09 02:33:46;;;;;;;3.73;2.03;;;13.90;99.90;;;;;;4964140;29;20449;-91
2023/08/09 02:36:14;;;;;;;3.60;2.30;;;;;;;;;;4963406;29;20980;-91
2023/08/09 02:38:41;;;;;;;2.10;1.97;;;;;;;;;;4962991;29;20970;-91
2023/08/09 02:41:09;;;;;;;2.70;2.50;;;;;;;;;;4972241;28;20451;-91
2023/08/09 02:43:36;;;;;;;4.63;2.20;;;14.30;99.90;;;;;;4981129;28;20510;-91
2023/08/09 02:46:04;;;;;;;3.70;2.37;;;;;;;;;;4981412;28;20474;-92
2023/08/09 02:48:31;;;;;;;3.80;2.20;;;;;;;;;;4975703;28;20835;-92
2023/08/09 02:51:01;;;;;;;2.83;1.90;;;;;;;;;;4963248;28;20471;-93
2023/08/09 02:53:34;;;;;;;2.33;2.13;;;14.00;1.00;;;;;;4964308;29;20455;-93
2023/08/09 02:56:01;;;;;;;2.03;1.87;;;;;;;;;;4964521;29;20478;-92
2023/08/09 02:58:29;;;;;;;2.30;2.03;;;;;;;;;;4969038;29;20454;-92
2023/08/09 03:00:56;;;;;;;5.43;2.83;;;;;;;;;;4965884;28;20474;-92
2023/08/09 03:03:23;;;;;;;2.00;1.80;;;;;;;;;;4964199;29;20450;-91
2023/08/09 03:05:51;;;;;;;1.97;1.70;;;;;;;;;;4963615;29;20489;-91
2023/08/09 03:08:19;;;;;;;2.40;2.17;;;13.90;1.00;;;;;;4964819;29;20474;-91
2023/08/09 03:10:46;;;;;;;2.67;2.43;;;;;;;;;;4966259;28;20470;-92
2023/08/09 03:13:13;;;;;;;2.27;2.10;;;14.40;1.00;;;;;;4975033;28;20446;-91
2023/08/09 03:15:40;;;;;;;2.07;1.97;;;14.40;1.00;;;;;;4973865;28;20482;-91
2023/08/09 03:18:07;;;;;;;2.30;2.10;;;;;;;;;;4964635;29;20470;-91
2023/08/09 03:20:37;;;;;;;5.73;2.33;;;14.10;99.90;;;;;;4962246;28;20494;-91
2023/08/09 03:23:04;;;;;;;2.47;2.03;;;;;;;;;;4962366;29;20477;-91
2023/08/09 03:25:34;;;;;;;3.50;2.57;;;;;;;;;;4973024;28;20459;-92
2023/08/09 03:28:01;;;;;;;4.83;2.40;;;;;;;;;;4964434;29;20458;-92
2023/08/09 03:30:28;;;;;;;4.43;2.20;;;;;;;;;;4963474;28;20529;-91
2023/08/09 03:32:56;;;;;;;3.17;2.53;;;;;;;;;;4964431;29;20450;-90
2023/08/09 03:35:23;;;;;;;6.13;3.50;;;;;;;;;;4969362;28;20454;-90
2023/08/09 03:37:50;;;;;;;3.90;2.43;;;;;;;;;;4973133;28;20451;-92
2023/08/09 03:40:18;;;;;;;2.60;2.40;;;;;;;;;;4980189;28;20454;-94
2023/08/09 03:42:46;;;;;;;3.13;2.90;;;;;;;;;;4980125;28;20449;-93
2023/08/09 03:45:14;;;;;;;2.87;2.10;;;;;;;;;;4976304;28;20474;-91
2023/08/09 03:47:41;;;;;;;2.13;1.93;;;;;;;;;;4969107;29;20647;-91
2023/08/09 03:50:08;;;;;;;2.30;2.00;;;14.30;99.90;;;;;;4973145;28;20938;-92
2023/08/09 03:52:35;;;;;;;2.30;2.10;;;;;;;;;;4968991;29;20450;-92
2023/08/09 03:55:02;;;;;;;1.87;1.70;;;;;;;;;;4967861;29;20520;-91
2023/08/09 03:57:30;;;;;;;2.33;2.20;;;;;;;;;;4970459;29;20537;-92
2023/08/09 04:02:40;;;;;;;9.53;5.63;;;13.50;29.90;;;;;;4941731;29;20479;-88
2023/08/09 04:05:07;;;;;;;3.33;3.13;;;;;;;;;;4954142;29;20454;-85
2023/08/09 04:07:34;;;;;;;2.33;2.13;;;13.80;1.00;;;;;;4955280;28;20454;-88
2023/08/09 04:10:01;;;;;;;4.33;2.07;;;;;;;;;;4953176;29;20455;-90
2023/08/09 04:12:29;;;;;;;2.23;2.00;;;;;;;;;;4942396;29;20451;-88
2023/08/09 04:14:55;;;;;;;2.00;1.90;;;13.60;99.90;;;;;;4939819;29;20525;-86
2023/08/09 04:17:24;;;;;;;2.57;2.37;;;13.80;1.00;;;;;;4940025;29;20463;-87
2023/08/09 04:19:50;;;;;;;2.10;1.70;;;14.00;1.00;;;;;;4941033;29;20972;-88
2023/08/09 04:22:18;;;;;;;2.67;2.47;;;13.60;99.90;;;;;;4939892;29;20549;-88
2023/08/09 04:24:45;;;;;;;1.70;1.60;;;14.10;1.00;;;;;;4940257;29;20526;-88
2023/08/09 04:27:12;;;;;;;2.97;2.70;;;13.60;1.00;;;;;;4945544;29;20451;-88
2023/08/09 04:29:39;;;;;;;13.47;3.17;;;13.50;1.00;;;;;;4943496;29;20458;-88
2023/08/09 04:32:07;;;;;;;3.23;2.93;;;13.70;99.90;;;;;;4944176;29;20474;-88
2023/08/09 04:34:35;;;;;;;2.80;2.60;;;13.50;99.90;;;;;;4943404;29;20974;-87
2023/08/09 04:37:02;;;;;;;3.67;2.90;;;14.20;1.00;;;;;;4942343;29;20533;-89
2023/08/09 04:39:29;;;;;;;6.40;2.90;;;13.50;1.00;;;;;;4943055;29;20457;-88
2023/08/09 04:41:57;;;;;;;3.67;2.40;;;;;;;;;;4942922;29;20471;-88
2023/08/09 04:44:24;;;;;;;3.43;3.17;;;14.20;1.00;;;;;;4946508;28;20442;-88
2023/08/09 04:46:50;;;;;;;8.23;7.17;;;13.80;99.90;;;;;;4948569;28;20897;-88
2023/08/09 04:49:17;;;;;;;5.20;4.70;;;13.80;28.80;;;;;;4940507;29;20457;-88
2023/08/09 04:51:46;;;;;;;4.37;3.90;;;13.90;1.00;;;;;;4940562;29;20477;-88
2023/08/09 04:54:13;;;;;;;3.63;3.33;;;14.00;1.00;;;;;;4941949;29;20458;-88
2023/08/09 04:56:40;;;;;;;5.73;3.30;;;14.30;1.00;;;;;;4941162;29;20459;-88
2023/08/09 04:59:08;;;;;;;4.33;3.83;;;;;;;;;;4943426;29;20439;-88
2023/08/09 05:01:34;;;;;;;4.73;4.30;;;14.00;1.00;;;;;;4956052;29;20542;-88
2023/08/09 05:04:02;;;;;;;4.83;3.97;;;;;;;;;;5033550;23;20522;-89
2023/08/09 05:06:29;;;;;;;9.57;7.27;;;14.40;1.00;;;;;;4967425;29;20454;-87
2023/08/09 05:08:57;;;;;;;5.60;4.30;;;13.30;99.90;;;;;;4963212;29;20445;-88
2023/08/09 05:11:24;;;;;;;4.13;3.43;;;14.30;99.90;;;;;;4962688;29;20914;-88
2023/08/09 05:13:51;;;;;;;8.77;5.90;;;14.10;1.00;;;;;;4960758;29;20484;-88
2023/08/09 05:16:24;;;;;;;7.07;4.43;;;;;;;;;;4959444;29;21014;-87
2023/08/09 05:18:51;;;;;;;3.87;2.63;;;;;;;;;;5022620;23;20497;-90
2023/08/09 05:21:18;;;;;;;4.97;2.43;;;;;;;;;;5001044;28;20440;-90
2023/08/09 05:23:45;;;;;;;3.80;2.37;;;;;;;;;;5001130;28;20429;-91
2023/08/09 05:26:14;;;;;;;3.33;2.50;;;;;;;;;;4999072;28;20437;-92
2023/08/09 05:28:42;;;;;;;3.13;2.10;;;;;;;;;;4995394;28;20473;-92
2023/08/09 05:31:09;;;;;;;5.33;2.50;;;;;;;;;;4996454;28;20479;-91
2023/08/09 05:33:36;;;;;;;2.13;1.93;;;;;;;;;;5000139;28;20450;-91
2023/08/09 05:36:03;;;;;;;2.80;1.97;;;;;;;;;;4998848;28;20501;-92
2023/08/09 05:38:36;;;;;;;5.93;2.23;;;14.30;99.90;;;;;;4998471;28;20555;-91
2023/08/09 05:41:04;;;;;;;2.27;1.70;;;;;;;;;;4994718;28;20461;-90
2023/08/09 05:43:32;;;;;;;4.53;1.57;;;;;;;;;;4990683;28;20453;-90
2023/08/09 05:46:00;;;;;;;3.83;1.80;;;;;;;;;;4989506;28;20473;-90
2023/08/09 05:48:27;;;;;;;3.80;1.90;;;;;;;;;;4987510;28;20906;-90
2023/08/09 05:50:54;;;;;;;3.43;1.87;;;;;;;;;;4987809;28;20508;-92
2023/08/09 05:53:21;;;;;;;1.90;1.67;;;;;;;;;;4986889;28;20969;-91
2023/08/09 05:55:49;;;;;;;5.20;2.00;;;;;;;;;;4986721;28;20483;-92
2023/08/09 05:58:16;;;;;;;3.77;1.70;;;;;;;;;;4986827;28;20473;-92
2023/08/09 06:00:45;;;;;;;2.20;1.37;;;;;;;;;;4991709;28;20804;-91
2023/08/09 06:03:12;;;;;;;2.57;1.53;;;14.90;1.00;;;;;;4989272;28;21013;-93
2023/08/09 06:05:39;;;;;;;4.67;1.80;;;;;;;;;;4994612;28;20449;-90
2023/08/09 06:08:06;;;;;;;4.33;2.37;;;15.10;1.00;;;;;;4989861;28;20466;-91
2023/08/09 06:10:34;;;;;;;2.53;2.00;;;;;;;;;;4986395;28;20489;-91
2023/08/09 06:13:02;;;;;;;5.80;2.60;;;;;;;;;;4993451;28;20516;-90
2023/08/09 06:15:29;;;;;;;6.47;4.87;;;;;;;;;;4986661;28;20482;-91
2023/08/09 06:17:58;;;;;;;4.10;2.90;;;;;;;;;;4986020;28;20876;-91
2023/08/09 06:20:27;;;;;;;2.37;1.70;;;;;;;;;;4985201;28;20545;-90
2023/08/09 06:22:54;;;;;;;2.23;2.03;;;15.50;99.90;;;;;;4998876;28;20464;-91
2023/08/09 06:25:22;;;;;;;2.17;1.97;;;;;;;;;;4987384;28;20520;-90
2023/08/09 06:27:50;;;;;;;2.13;1.93;;;;;;;;;;4986812;28;20532;-91
2023/08/09 06:30:17;;;;;;;3.23;2.03;;;;;;;;;;4986038;28;20496;-92
2023/08/09 06:32:45;;;;;;;3.27;1.87;;;;;;;;;;4984554;28;20448;-91
2023/08/09 06:35:14;;;;;;;3.60;1.80;;;15.30;25.50;;;;;;4983800;28;20489;-90
2023/08/09 06:37:41;;;;;;;6.00;2.23;;;;;;;;;;4986555;28;20481;-91
2023/08/09 06:40:09;;;;;;;2.30;1.43;;;15.10;1.00;;;;;;4994331;28;20436;-90
2023/08/09 06:42:36;;;;;;;3.20;1.83;;;;;;;;;;5000550;28;20429;-89
2023/08/09 06:45:04;;;;;;;2.80;1.60;;;;;;;;;;5000620;28;20433;-88
2023/08/09 06:47:51;;;;;;;2.20;1.90;;;15.20;1.00;;;;;;4994880;28;20435;-92
2023/08/09 06:50:20;;;;;;;5.13;2.40;;;;;;;;;;4985423;28;20392;-91
2023/08/09 06:52:47;;;;;;;4.63;2.63;;;;;;;;;;4986120;28;20476;-91
2023/08/09 06:55:14;;;;;;;4.13;3.63;;;;;;;;;;4983798;28;20489;-91
2023/08/09 06:57:41;;;;;;;8.23;5.30;;;;;;;;;;4982666;28;20473;-91
2023/08/09 07:00:16;;;;;;;4.13;3.53;;;;;;;;;;4983163;28;20441;-91
2023/08/09 07:02:48;;;;;;;6.03;3.40;;;;;;;;;;4991527;28;20472;-91
2023/08/09 07:05:20;;;;;;;6.20;2.27;;;;;;;;;;4999850;28;20446;-88
2023/08/09 07:07:51;;;;;;;3.30;2.37;;;;;;;;;;4999933;28;20461;-92
2023/08/09 07:10:19;;;;;;;1.90;1.70;;;;;;;;;;5000060;28;20449;-91
2023/08/09 07:12:46;;;;;;;3.33;1.70;;;;;;;;;;4999639;28;20473;-92
2023/08/09 07:15:16;;;;;;;3.20;2.33;;;;;;;;;;4993107;28;20472;-92
2023/08/09 07:17:44;;;;;;;4.33;1.97;;;;;;;;;;4997077;28;20473;-89
2023/08/09 07:20:14;;;;;;;4.13;3.20;;;;;;;;;;4998985;28;20500;-92
2023/08/09 07:22:44;;;;;;;3.27;1.70;;;;;;;;;;4999105;28;20429;-91
2023/08/09 07:25:57;;;;;;;3.47;1.50;;;16.00;1.00;;;;;;4997497;28;20453;-92
2023/08/09 07:28:26;;;;;;;6.00;2.10;;;16.10;1.00;;;;;;4989096;28;20477;-92
2023/08/09 07:30:53;;;;;;;1.63;1.23;;;;;;;;;;4986579;28;20480;-91
2023/08/09 07:33:21;;;;;;;2.50;1.70;;;;;;;;;;4985639;28;20481;-91
2023/08/09 07:35:48;;;;;;;3.70;1.90;;;16.70;1.00;;;;;;4985342;28;20483;-91
2023/08/09 07:38:15;;;;;;;2.07;1.70;;;;;;;;;;4986619;28;20846;-91
2023/08/09 07:40:43;;;;;;;1.70;1.60;;;;;;;;;;4984719;28;20446;-91
2023/08/09 07:43:10;;;;;;;4.50;1.77;;;;;;;;;;4991426;28;20520;-91
2023/08/09 07:45:42;;;;;;;7.27;2.10;;;;;;;;;;4985089;28;20484;-91
2023/08/09 07:48:09;;;;;;;2.17;1.33;;;16.30;99.90;;;;;;4984256;28;20466;-91
2023/08/09 07:50:36;;;;;;;3.43;1.50;;;;;;;;;;4983417;28;20442;-91
2023/08/09 07:53:03;;;;;;;1.97;1.70;;;;;;;;;;4984946;28;20448;-90
2023/08/09 07:55:31;;;;;;;2.93;1.97;;;;;;;;;;4985593;28;20517;-90
2023/08/09 07:57:58;;;;;;;3.60;1.40;;;;;;;;;;4989531;28;20489;-91
2023/08/09 08:00:26;;;;;;;6.60;2.27;;;;;;;;;;5000190;28;20427;-89
2023/08/09 08:02:55;;;;;;;3.93;1.90;;;16.70;1.00;;;;;;5003555;28;20500;-89
2023/08/09 08:05:22;;;;;;;2.43;1.60;;;17.20;99.90;;;;;;4991990;28;20461;-92
2023/08/09 08:07:49;;;;;;;7.67;1.87;;;;;;;;;;4989157;28;20465;-92
2023/08/09 08:10:16;;;;;;;2.47;1.50;;;;;;;;;;4989030;28;20454;-92
2023/08/09 08:12:44;;;;;;;4.23;1.97;;;;;;;;;;4986556;28;20953;-92
2023/08/09 08:15:19;;;;;;;4.13;1.83;;;16.90;1.00;;;;;;4986470;28;20964;-92
2023/08/09 08:17:48;;;;;;;1.47;1.37;;;;;;;;;;4988473;28;20482;-92
2023/08/09 08:20:17;;;;;;;3.03;1.53;;;;;;;;;;4991005;28;20449;-92
2023/08/09 08:22:44;;;;;;;4.37;1.70;;;;;;;;;;4992006;28;20470;-90
2023/08/09 08:25:12;;;;;;;1.83;1.33;;;17.00;1.00;;;;;;5003105;28;20466;-90
2023/08/09 08:27:39;;;;;;;2.57;1.60;;;;;;;;;;4999888;28;20479;-92
2023/08/09 08:30:08;;;;;;;2.97;1.50;;;;;;;;;;4995584;28;20515;-91
2023/08/09 08:32:36;;;;;;;2.50;1.67;;;;;;;;;;5002877;28;20470;-89
2023/08/09 08:35:04;;;;;;;3.60;1.80;;;17.40;99.90;;;;;;5001420;28;20450;-91
2023/08/09 08:37:32;;;;;;;4.40;2.20;;;;;;;;;;4996531;28;20494;-91
2023/08/09 08:39:59;;;;;;;4.70;3.50;;;;;;;;;;4999502;28;20435;-91
2023/08/09 08:42:27;;;;;;;4.33;2.80;;;;;;;;;;4994358;28;20452;-91
2023/08/09 08:44:55;;;;;;;3.80;1.90;;;;;;;;;;4991353;28;20459;-91
2023/08/09 08:47:23;;;;;;;3.40;1.30;;;;;;;;;;4989567;28;20992;-91
2023/08/09 08:49:51;;;;;;;1.87;1.20;;;17.70;1.00;;;;;;4991530;28;20429;-90
2023/08/09 08:52:19;;;;;;;4.47;1.53;;;17.70;1.00;;;;;;5000390;28;20449;-91
2023/08/09 08:54:48;;;;;;;4.30;1.30;;;;;;;;;;4998689;28;20492;-91
2023/08/09 08:57:15;;;;;;;4.57;1.53;;;;;;;;;;4994365;28;20545;-91
2023/08/09 08:59:42;;;;;;;4.63;1.47;;;;;;;;;;4990213;28;20453;-91
2023/08/09 09:02:10;;;;;;;7.43;1.83;;;;;;;;;;4987336;28;20455;-91
2023/08/09 09:04:38;;;;;;;3.60;1.20;;;;;;;;;;4985880;28;20460;-91
2023/08/09 09:07:07;;;;;;;4.30;1.63;;;;;;;;;;4986291;28;20475;-91
2023/08/09 09:09:34;;;;;;;3.43;1.23;;;;;;;;;;4986244;28;20436;-91
2023/08/09 09:12:03;;;;;;;11.13;1.70;;;;;;;;;;4985781;28;20457;-92
2023/08/09 09:14:31;;;;;;;3.87;1.40;;;;;;;;;;4990920;28;20487;-91
2023/08/09 09:16:58;;;;;;;2.60;1.70;;;;;;;;;;4986996;28;20508;-91
2023/08/09 09:19:27;;;;;;;4.30;1.50;;;17.90;1.00;;;;;;4986276;28;20946;-92
2023/08/09 09:21:54;;;;;;;5.40;1.90;;;;;;;;;;4968694;28;20449;-92
2023/08/09 09:24:22;;;;;;;4.20;1.50;;;;;;;;;;4999568;28;20449;-91
2023/08/09 09:26:57;;;;;;;5.37;1.73;;;17.90;1.00;;;;;;4995815;28;20442;-92
2023/08/09 09:29:33;;;;;;;1.77;1.27;;;18.00;1.00;;;;;;4995444;28;20412;-91
2023/08/09 09:32:00;;;;;;;1.93;1.20;;;;;;;;;;5000787;28;20448;-90
2023/08/09 09:34:31;;;;;;;3.10;1.50;;;;;;;;;;4996805;28;20460;-90
2023/08/09 09:36:59;;;;;;;3.10;1.70;;;;;;;;;;4992571;28;20476;-91
2023/08/09 09:39:29;;;;;;;3.07;1.53;;;18.20;1.00;;;;;;4991393;28;20452;-90
2023/08/09 09:41:57;;;;;;;3.73;1.37;;;;;;;;;;4999657;28;20465;-90
2023/08/09 09:44:25;;;;;;;8.60;1.30;;;;;;;;;;4992061;28;20467;-92
2023/08/09 09:46:57;;;;;;;4.00;1.23;;;;;;;;;;4995251;28;20468;-91
2023/08/09 09:49:26;;;;;;;3.07;1.23;;;;;;;;;;4994562;28;20548;-91
2023/08/09 09:51:55;;;;;;;5.33;1.70;;;18.50;1.00;;;;;;4996272;28;20442;-91
2023/08/09 09:54:23;;;;;;;5.57;1.60;;;;;;;;;;4992576;28;20944;-92
2023/08/09 09:56:50;;;;;;;4.07;1.47;;;;;;;;;;4987464;28;20497;-91
2023/08/09 09:59:19;;;;;;;9.00;1.60;;;;;;;;;;4987773;28;20468;-91
2023/08/09 10:01:48;;;;;;;3.97;1.30;;;18.60;1.00;;;;;;4986675;28;20524;-92
2023/08/09 10:04:17;;;;;;;1.33;1.00;;;;;;;;;;4986711;28;20464;-91
2023/08/09 10:06:48;;;;;;;2.43;1.63;;;18.50;1.00;;;;;;4991468;28;20452;-89
2023/08/09 10:09:16;;;;;;;4.50;2.97;;;;;;;;;;4990286;28;20439;-93
2023/08/09 10:11:48;;;;;;;5.27;1.80;;;18.40;1.00;;;;;;4992605;28;20461;-92
2023/08/09 10:14:17;;;;;;;5.27;1.33;;;18.30;1.00;;;;;;4985287;28;20469;-92
2023/08/09 10:16:46;;;;;;;1.43;1.00;;;18.30;1.00;;;;;;4985007;28;20481;-91
2023/08/09 10:19:20;;;;;;;2.50;1.60;;;18.30;1.00;;;;;;4984720;28;20519;-91
2023/08/09 10:21:52;;;;;;;1.40;1.20;;;;;;;;;;4985449;28;20513;-92
2023/08/09 10:24:20;;;;;;;5.67;1.27;;;;;;;;;;4985020;28;20883;-91
2023/08/09 10:26:51;;;;;;;2.87;1.10;;;;;;;;;;4987486;28;20472;-92
2023/08/09 10:29:23;;;;;;;2.63;1.17;;;18.50;1.00;;;;;;4993602;28;20804;-92
2023/08/09 10:31:55;;;;;;;3.50;1.50;;;18.50;1.00;;;;;;4995211;28;20445;-90
2023/08/09 10:34:37;;;;;;;3.30;1.83;;;18.60;1.00;;;;;;4988628;28;20864;-91
2023/08/09 10:37:06;;;;;;;2.50;1.57;;;;;;;;;;4987793;28;20572;-91
2023/08/09 10:39:35;;;;;;;2.73;1.20;;;19.00;1.00;;;;;;4986525;28;20433;-92
2023/08/09 10:42:06;;;;;;;1.53;1.03;;;19.10;1.00;;;;;;4984134;28;20508;-92
2023/08/09 10:44:33;;;;;;;2.60;1.10;;;;;;;;;;4984400;28;20469;-92
2023/08/09 10:47:06;;;;;;;1.20;1.00;;;19.10;1.00;;;;;;4984049;28;20493;-92
2023/08/09 10:50:00;;;;;;;1.70;1.10;;;19.20;1.00;;;;;;4985289;28;20465;-92
2023/08/09 10:52:33;;;;;;;5.83;1.73;;;18.80;1.00;;;;;;4988460;28;20453;-92
2023/08/09 10:55:25;;;;;;;2.70;1.50;;;18.70;1.00;;;;;;4991211;28;20437;-93
2023/08/09 10:57:53;;;;;;;4.43;1.40;;;18.60;1.00;;;;;;4994065;28;20520;-91
2023/08/09 11:00:23;;;;;;;2.97;2.10;;;18.60;1.00;;;;;;4996559;28;20448;-91
2023/08/09 11:02:52;;;;;;;5.40;2.00;;;18.70;1.00;;;;;;4997210;28;20961;-92
2023/08/09 11:05:23;;;;;;;2.33;1.50;;;;;;;;;;4993665;28;20450;-93
2023/08/09 11:07:51;;;;;;;2.23;1.20;;;;;;;;;;4989806;28;20537;-91
2023/08/09 11:10:33;;;;;;;7.83;2.20;;;18.10;1.00;;;;;;4990254;28;20450;-92
2023/08/09 11:13:06;;;;;;;3.63;1.40;;;;;;;;;;4985869;28;20442;-91
2023/08/09 11:15:33;;;;;;;3.27;1.67;;;;;;;;;;4986103;28;20491;-92
2023/08/09 11:18:01;;;;;;;3.87;1.60;;;;;;;;;;4986570;28;20519;-91
2023/08/09 11:20:30;;;;;;;2.43;2.00;;;;;;;;;;4986573;28;20460;-93
2023/08/09 11:23:00;;;;;;;2.20;1.40;;;17.00;1.00;;;;;;4988473;28;20453;-93
2023/08/09 11:25:28;;;;;;;3.37;1.37;;;;;;;;;;4992347;28;20473;-93
2023/08/09 11:27:57;;;;;;;4.40;1.87;;;17.30;1.00;;;;;;4997331;28;20454;-91
2023/08/09 11:30:25;;;;;;;3.30;1.70;;;;;;;;;;4999866;28;20436;-91
2023/08/09 11:32:57;;;;;;;2.70;1.67;;;;;;;;;;4998829;28;20433;-92
2023/08/09 11:35:32;;;;;;;2.40;1.80;;;;;;;;;;4987006;28;20448;-92
2023/08/09 11:37:59;;;;;;;1.83;1.10;;;;;;;;;;4985607;28;20548;-91
2023/08/09 11:40:29;;;;;;;2.43;1.30;;;;;;;;;;4984224;28;20436;-93
2023/08/09 11:42:57;;;;;;;1.40;0.83;;;;;;;;;;4984103;28;20484;-92
2023/08/09 11:45:25;;;;;;;2.57;1.40;;;;;;;;;;4983901;28;20465;-92
2023/08/09 11:47:53;;;;;;;1.73;1.07;;;18.30;1.00;;;;;;4984808;28;20465;-92
2023/08/09 11:50:22;;;;;;;4.73;1.30;;;;;;;;;;4986445;28;20446;-91
2023/08/09 11:52:54;;;;;;;1.80;1.67;;;;;;;;;;4989902;28;20435;-90
2023/08/09 11:55:21;;;;;;;1.53;1.13;;;;;;;;;;4988126;28;20422;-91
2023/08/09 11:57:49;;;;;;;3.17;1.73;;;;;;;;;;4986600;28;20575;-91
2023/08/09 12:00:30;;;;;;;4.30;1.70;;;;;;;;;;4987560;28;20521;-91
2023/08/09 12:03:02;;;;;;;2.40;2.17;;;;;;;;;;4985436;28;20501;-91
2023/08/09 12:05:30;;;;;;;3.00;1.67;;;;;;;;;;4993550;28;20792;-91
2023/08/09 12:08:04;;;;;;;7.07;1.43;;;;;;;;;;4988350;28;20473;-91
2023/08/09 12:10:31;;;;;;;4.10;1.03;;;;;;;;;;4986142;28;20457;-91
2023/08/09 12:13:02;;;;;;;3.27;1.50;;;;;;;;;;4985113;28;20450;-91
2023/08/09 12:15:31;;;;;;;2.67;1.03;;;;;;;;;;4985630;28;20541;-91
2023/08/09 12:17:59;;;;;;;3.70;1.53;;;;;;;;;;4983387;28;20488;-91
2023/08/09 12:20:26;;;;;;;2.90;1.73;;;;;;;;;;4983398;28;20484;-91
2023/08/09 12:22:54;;;;;;;2.17;1.30;;;;;;;;;;4986952;28;20442;-91
2023/08/09 12:25:23;;;;;;;2.00;1.37;;;;;;;;;;4987143;28;20551;-90
2023/08/09 12:27:51;;;;;;;2.57;1.93;;;;;;;;;;4984566;28;20465;-90
2023/08/09 12:30:19;;;;;;;4.80;1.40;;;;;;;;;;4985128;28;20458;-90
2023/08/09 12:32:46;;;;;;;10.33;2.93;;;;;;;;;;4982144;28;20484;-91
2023/08/09 12:35:14;;;;;;;3.60;1.60;;;;;;;;;;4984485;28;20503;-90
2023/08/09 12:37:41;;;;;;;4.93;1.37;;;;;;;;;;4983331;28;20491;-91
2023/08/09 12:40:10;;;;;;;2.50;1.10;;;;;;;;;;4982930;28;20922;-91
2023/08/09 12:42:41;;;;;;;7.90;1.83;;;20.10;1.00;;;;;;4983268;28;20480;-91
2023/08/09 12:45:09;;;;;;;1.63;1.10;;;20.20;99.90;;;;;;4983553;28;20456;-91
2023/08/09 12:47:36;;;;;;;1.10;0.83;;;19.80;1.00;;;;;;4985303;28;20986;-91
2023/08/09 12:50:03;;;;;;;3.30;1.57;;;;;;;;;;4987784;28;20454;-91
2023/08/09 12:52:30;;;;;;;8.40;1.30;;;19.60;99.90;;;;;;4987322;28;20479;-91
2023/08/09 12:54:58;;;;;;;4.00;2.10;;;;;;;;;;4986340;28;20444;-91
2023/08/09 12:57:25;;;;;;;1.30;1.07;;;;;;;;;;4986075;28;20580;-91
2023/08/09 12:59:56;;;;;;;4.00;1.10;;;21.50;1.00;;;;;;4986226;28;20497;-91
2023/08/09 13:02:23;;;;;;;1.63;1.20;;;;;;;;;;4987951;28;20942;-90
2023/08/09 13:04:51;;;;;;;3.07;1.17;;;;;;;;;;4988912;28;20973;-91
2023/08/09 13:07:18;;;;;;;4.13;1.47;;;20.00;99.90;;;;;;4993807;28;20474;-91
2023/08/09 13:09:45;;;;;;;2.20;1.30;;;;;;;;;;4988177;28;20481;-91
2023/08/09 13:12:13;;;;;;;1.57;1.30;;;;;;;;;;4994952;28;20530;-91
2023/08/09 13:14:40;;;;;;;2.77;1.60;;;;;;;;;;4996146;28;20446;-92
2023/08/09 13:17:09;;;;;;;7.13;1.70;;;;;;;;;;5001929;28;20476;-91
2023/08/09 13:19:36;;;;;;;2.00;1.10;;;;;;;;;;5002154;28;20523;-90
2023/08/09 13:22:04;;;;;;;2.30;1.40;;;;;;;;;;5002095;28;20425;-89
2023/08/09 13:24:31;;;;;;;2.27;1.37;;;;;;;;;;5002178;28;20492;-89
2023/08/09 13:26:59;;;;;;;2.23;1.30;;;;;;;;;;5002126;28;20477;-89
2023/08/09 13:29:27;;;;;;;1.97;1.10;;;;;;;;;;5001926;28;20520;-89
2023/08/09 13:31:55;;;;;;;2.07;1.40;;;;;;;;;;5001706;28;20438;-91
2023/08/09 13:34:23;;;;;;;3.17;1.37;;;;;;;;;;5001930;28;20457;-89
2023/08/09 13:36:50;;;;;;;2.53;0.93;;;19.60;99.90;;;;;;5001458;28;20477;-90
2023/08/09 13:39:18;;;;;;;2.60;1.00;;;;;;;;;;5000637;28;20496;-89
2023/08/09 13:41:45;;;;;;;1.63;1.47;;;;;;;;;;4999722;28;20468;-91
2023/08/09 13:44:13;;;;;;;5.60;2.20;;;;;;;;;;4996202;28;20434;-91
2023/08/09 13:46:40;;;;;;;3.40;1.50;;;;;;;;;;4993866;28;20469;-89
2023/08/09 13:49:07;;;;;;;2.13;1.80;;;;;;;;;;4988994;28;20515;-90
2023/08/09 13:51:36;;;;;;;1.53;1.13;;;;;;;;;;4988546;28;20485;-91
2023/08/09 13:54:03;;;;;;;3.77;1.40;;;19.60;99.90;;;;;;4989067;28;20454;-91
2023/08/09 13:56:31;;;;;;;1.70;1.20;;;;;;;;;;4990153;28;20461;-92
2023/08/09 13:58:58;;;;;;;7.20;1.97;;;;;;;;;;4996216;28;20469;-91
2023/08/09 14:01:25;;;;;;;4.60;1.37;;;;;;;;;;5001465;28;20497;-91
2023/08/09 14:03:53;;;;;;;2.27;1.40;;;;;;;;;;5000931;28;20429;-91
2023/08/09 14:06:20;;;;;;;2.10;1.30;;;;;;;;;;4995291;28;20457;-91
2023/08/09 14:08:49;;;;;;;2.20;1.63;;;;;;;;;;4988456;28;20473;-92
2023/08/09 14:11:16;;;;;;;3.80;1.03;;;;;;;;;;4988677;28;20481;-91
2023/08/09 14:13:46;;;;;;;2.13;0.93;;;;;;;;;;4989475;28;20437;-91
2023/08/09 14:16:16;;;;;;;2.90;1.20;;;;;;;;;;4989427;28;20440;-92